Main page
METAR-TAF:

METAR-TAF

Airports :

Cervia, Italy

Cervia Air Base

latitude: 44-13N, longitude: 012-18E, elevation: 6 m

Current weather observation

The report was made 1 hour and 35 minutes ago, at 17:55 UTC
Calm wind
Temperature 15°C
Humidity 94%
Pressure 1019 hPa
Visibility: 2500 m
mist

METAR: LIPC 211755Z 00000KT 2500 BR NSC 15/14 Q1019 RMK FEW FEW160 VIS MIN 2500 WIND THR11 00000KT WIND THR29 22001KT YLO

Time: 21:30 (19:30 UTC)

Forecast

The report was made 2 hours and 30 minutes ago, at 17:00 UTC
Forecast valid from 21 at 18 UTC to 22 at 03 UTC
Wind 3 kt from the East/Southeast
Visibility: 2000 m
Scattered clouds at a height of 1500 ft
Temporary
from 21 at 19 UTC to 22 at 03 UTC
Visibility: 1500 m
Broken clouds at a height of 1000 ft
mist

TAF: LIPC 211700Z 2118/2203 11003KT 2000 SCT015 TEMPO 2119/2203 1500 BR BKN010

Weather observations and forecasts of more than 4000 airports (METAR and TAF reports).

The available stations are represented by yellow and red dots on the map.

Hover mouse over dot to see the name of the station.

Then click to see weather observations and forecasts.

To change the map : click on the green buttons with a black cross to zoom in, on the green button with a dash to zoom out, or on the green arrows for adjacent maps.


METAR-TAF: